Home   Weather   Germany   Plettenberg   Past weeks
Flag for Germany

Past Weather in Plettenberg, North Rhine-Westphalia, Germany — Yesterday and Last 2 Weeks

Currently: 63 °F. Passing clouds. (Weather station: Dortmund / Wickede, Germany). See more current weather

Past Weather in Plettenberg — Graph

°F

Plettenberg Temperature Yesterday

Maximum temperature yesterday: 73 °F (at 4:20 pm)
Minimum temperature yesterday: 55 °F (at 1:20 am)
Average temperature yesterday: 64 °F

High & Low Weather Summary for the Past Weeks

 TemperatureHumidityPressure
High81 °F (Jul 25, 2:50 pm)100% (Jul 24, 9:50 pm)30.18 "Hg (Jul 24, 9:50 pm)
Low50 °F (Aug 3, 5:20 am)42% (Jul 23, 5:50 pm)29.62 "Hg (Aug 6, 4:20 am)
Average64 °F75%29.87 "Hg
* Reported Jul 22 5:20 am — Aug 6 5:20 am, Plettenberg. Weather by CustomWeather, © 2021

Note: Actual official high and low records may vary slightly from our data, if they occured in-between our weather recording intervals... More about our weather records

Plettenberg Weather History for the Previous 24 Hours

Scroll right to see more
 ConditionsComfort  
Time TempWeatherWind HumidityBarometerVisibility
5:20 am
Fri, Aug 6
63 °FPassing clouds.9 mph83%29.62 "HgN/A
4:20 am61 °FPassing clouds.7 mph88%29.62 "HgN/A
3:50 am61 °FPassing clouds.8 mph88%29.65 "HgN/A
3:20 am61 °FPassing clouds.8 mph83%29.65 "HgN/A
2:20 am61 °FPartly cloudy.8 mph83%29.65 "HgN/A
1:50 am61 °FPartly cloudy.8 mph83%29.65 "HgN/A
1:20 am63 °FOvercast.7 mph77%29.65 "HgN/A
12:50 am63 °FPassing clouds.8 mph77%29.68 "HgN/A
12:20 am63 °FClear.7 mph73%29.68 "HgN/A
11:50 pm
Thu, Aug 5
61 °FClear.7 mph83%29.68 "HgN/A
11:20 pm61 °FClear.8 mph83%29.68 "HgN/A
10:50 pm63 °FClear.6 mph83%29.71 "HgN/A
10:20 pm64 °FClear.6 mph78%29.71 "Hg10 mi
9:50 pm66 °FClear.5 mph68%29.71 "Hg10 mi
9:20 pm63 °FPassing clouds.3 mph77%29.71 "HgN/A
8:50 pm66 °FSunny.7 mph73%29.71 "Hg10 mi
8:20 pm68 °FPassing clouds.3 mph69%29.71 "HgN/A
7:50 pm70 °FSunny.3 mph64%29.71 "Hg10 mi
7:20 pm72 °FPassing clouds.3 mph57%29.71 "HgN/A
6:50 pm70 °FPassing clouds.5 mph64%29.71 "HgN/A
6:20 pm72 °FScattered showers. Passing clouds.7 mph61%29.71 "HgN/A
5:50 pm72 °FPassing clouds.5 mph57%29.74 "HgN/A
5:20 pm73 °FPassing clouds.6 mph53%29.74 "HgN/A
4:50 pm73 °FPassing clouds.6 mph50%29.74 "HgN/A
4:20 pm73 °FPassing clouds.5 mph57%29.74 "HgN/A
3:50 pm72 °FPassing clouds.6 mph57%29.77 "HgN/A
3:20 pm72 °FPassing clouds.7 mph50%29.77 "HgN/A
2:50 pm70 °FSunny.9 mph60%29.77 "Hg10 mi
2:20 pm70 °FPassing clouds.10 mph69%29.77 "HgN/A
1:50 pm72 °FScattered clouds.5 mph61%29.80 "HgN/A
1:20 pm72 °FPassing clouds.5 mph61%29.80 "HgN/A
12:50 pm70 °FPassing clouds.2 mph60%29.80 "HgN/A
12:20 pm70 °FScattered clouds.2 mph57%29.80 "HgN/A
11:50 am70 °FPassing clouds.2 mph64%29.80 "HgN/A
11:20 am68 °FScattered clouds.2 mph69%29.83 "HgN/A
10:50 am66 °FPassing clouds.2 mph78%29.83 "HgN/A
10:20 am66 °FPassing clouds.2 mph78%29.83 "HgN/A
9:50 am66 °FSunny.2 mph78%29.83 "Hg10 mi
9:20 am64 °FPassing clouds.3 mph83%29.83 "HgN/A
8:50 am61 °FPassing clouds.3 mph94%29.83 "HgN/A
8:20 am59 °FPassing clouds.3 mph94%29.83 "HgN/A
7:50 am59 °FSunny.3 mph88%29.83 "Hg10 mi
7:20 am57 °FSunny.2 mph94%29.83 "Hg10 mi
6:50 am57 °FSunny.2 mph94%29.83 "Hg10 mi
6:20 am57 °FSunny.3 mph94%29.83 "Hg10 mi
Weather by CustomWeather, © 2021

See weather overview